createdAt,value
2018-08-20T00:00:47.444Z,1013.91
2018-08-20T00:01:47.243Z,1013.91
2018-08-20T00:02:47.251Z,1013.94
2018-08-20T00:03:47.252Z,1013.93
2018-08-20T00:04:47.281Z,1013.91
2018-08-20T00:05:47.273Z,1013.94
2018-08-20T00:06:47.268Z,1013.96
2018-08-20T00:07:47.281Z,1013.96
2018-08-20T00:08:47.288Z,1013.96
2018-08-20T00:09:47.481Z,1013.93
2018-08-20T00:10:47.283Z,1013.96
2018-08-20T00:11:47.287Z,1013.95
2018-08-20T00:12:47.495Z,1013.96
2018-08-20T00:13:47.308Z,1013.93
2018-08-20T00:14:47.302Z,1013.95
2018-08-20T00:15:47.518Z,1013.98
2018-08-20T00:16:47.317Z,1013.95
2018-08-20T00:17:47.324Z,1013.95
2018-08-20T00:18:47.321Z,1013.90
2018-08-20T00:19:47.322Z,1013.90
2018-08-20T00:20:47.335Z,1013.94
2018-08-20T00:21:47.331Z,1013.90
2018-08-20T00:22:47.342Z,1013.86
2018-08-20T00:23:47.347Z,1013.87
2018-08-20T00:24:47.546Z,1013.88
2018-08-20T00:25:47.349Z,1013.84
2018-08-20T00:26:47.371Z,1013.88
2018-08-20T00:27:47.373Z,1013.80
2018-08-20T00:28:47.363Z,1013.85
2018-08-20T00:29:47.385Z,1013.82
2018-08-20T00:30:47.372Z,1013.78
2018-08-20T00:31:47.376Z,1013.79
2018-08-20T00:32:47.378Z,1013.83
2018-08-20T00:33:47.585Z,1013.81
2018-08-20T00:34:47.399Z,1013.80
2018-08-20T00:35:47.410Z,1013.85
2018-08-20T00:36:47.408Z,1013.82
2018-08-20T00:37:47.619Z,1013.88
2018-08-20T00:38:47.629Z,1013.92
2018-08-20T00:39:47.424Z,1013.92
2018-08-20T00:40:47.428Z,1013.94
2018-08-20T00:41:47.427Z,1013.97
2018-08-20T00:42:47.437Z,1013.97
2018-08-20T00:43:47.426Z,1013.96
2018-08-20T00:44:47.638Z,1013.99
2018-08-20T00:45:47.648Z,1014.00
2018-08-20T00:46:47.466Z,1014.03
2018-08-20T00:47:47.671Z,1014.01
2018-08-20T00:48:47.452Z,1014.01
2018-08-20T00:49:47.456Z,1014.00
2018-08-20T00:50:47.458Z,1013.96
2018-08-20T00:51:47.488Z,1013.94
2018-08-20T00:52:47.684Z,1013.95
2018-08-20T00:53:47.699Z,1013.96
2018-08-20T00:54:47.782Z,1013.95
2018-08-20T00:55:47.689Z,1013.94
2018-08-20T00:56:47.493Z,1013.99
2018-08-20T00:57:47.707Z,1014.00
2018-08-20T00:58:47.705Z,1013.96
2018-08-20T00:59:47.703Z,1013.97
2018-08-20T01:00:47.501Z,1013.98
2018-08-20T01:01:47.505Z,1013.97
2018-08-20T01:02:47.521Z,1013.94
2018-08-20T01:03:47.520Z,1013.97
2018-08-20T01:04:47.535Z,1013.90
2018-08-20T01:05:47.522Z,1013.92
2018-08-20T01:06:47.730Z,1013.92
2018-08-20T01:07:47.745Z,1013.90
2018-08-20T01:08:47.765Z,1013.92
2018-08-20T01:09:47.752Z,1013.91
2018-08-20T01:10:47.542Z,1013.90
2018-08-20T01:11:47.555Z,1013.89
2018-08-20T01:12:47.753Z,1013.93
2018-08-20T01:13:47.560Z,1013.89
2018-08-20T01:14:47.575Z,1013.82
2018-08-20T01:15:47.571Z,1013.81
2018-08-20T01:16:47.770Z,1013.82
2018-08-20T01:17:47.586Z,1013.85
2018-08-20T01:18:47.584Z,1013.86
2018-08-20T01:19:47.589Z,1013.85
2018-08-20T01:20:47.784Z,1013.86
2018-08-20T01:21:47.585Z,1013.86
2018-08-20T01:22:47.793Z,1013.87
2018-08-20T01:23:47.598Z,1013.86
2018-08-20T01:24:47.601Z,1013.87
2018-08-20T01:25:47.813Z,1013.88
2018-08-20T01:26:47.616Z,1013.89
2018-08-20T01:27:47.611Z,1013.90
2018-08-20T01:28:47.624Z,1013.86
2018-08-20T01:29:47.617Z,1013.90
2018-08-20T01:30:47.623Z,1013.86
2018-08-20T01:31:47.624Z,1013.89
2018-08-20T01:32:47.628Z,1013.84
2018-08-20T01:33:47.630Z,1013.80
2018-08-20T01:34:47.636Z,1013.83
2018-08-20T01:35:47.641Z,1013.80
2018-08-20T01:36:47.658Z,1013.82
2018-08-20T01:37:47.652Z,1013.79
2018-08-20T01:38:47.869Z,1013.79
2018-08-20T01:39:47.656Z,1013.84
2018-08-20T01:40:47.658Z,1013.82
2018-08-20T01:41:47.876Z,1013.85
2018-08-20T01:42:47.884Z,1013.82
2018-08-20T01:43:47.875Z,1013.81
2018-08-20T01:44:47.697Z,1013.79
2018-08-20T01:45:47.885Z,1013.82
2018-08-20T01:46:47.698Z,1013.82
2018-08-20T01:47:47.700Z,1013.83
2018-08-20T01:48:47.691Z,1013.82
2018-08-20T01:49:47.722Z,1013.80
2018-08-20T01:50:47.700Z,1013.81
2018-08-20T01:51:47.705Z,1013.81
2018-08-20T01:52:47.909Z,1013.81
2018-08-20T01:53:47.925Z,1013.81
2018-08-20T01:54:47.739Z,1013.79
2018-08-20T01:55:47.717Z,1013.80
2018-08-20T01:56:47.732Z,1013.83
2018-08-20T01:57:47.727Z,1013.81
2018-08-20T01:58:47.748Z,1013.86
2018-08-20T01:59:47.941Z,1013.82
2018-08-20T02:00:47.741Z,1013.79
2018-08-20T02:01:47.958Z,1013.80
2018-08-20T02:02:47.745Z,1013.78
2018-08-20T02:03:47.761Z,1013.81
2018-08-20T02:04:47.762Z,1013.82
2018-08-20T02:05:47.782Z,1013.77
2018-08-20T02:06:48.009Z,1013.79
2018-08-20T02:07:47.767Z,1013.78
2018-08-20T02:08:47.769Z,1013.76
2018-08-20T02:09:47.769Z,1013.76
2018-08-20T02:10:47.804Z,1013.76
2018-08-20T02:11:47.994Z,1013.79
2018-08-20T02:12:47.990Z,1013.74
2018-08-20T02:13:47.991Z,1013.74
2018-08-20T02:14:47.791Z,1013.73
2018-08-20T02:15:47.794Z,1013.71
2018-08-20T02:16:47.797Z,1013.69
2018-08-20T02:17:47.802Z,1013.70
2018-08-20T02:18:48.018Z,1013.69
2018-08-20T02:19:47.808Z,1013.68
2018-08-20T02:20:47.815Z,1013.66
2018-08-20T02:21:47.824Z,1013.63
2018-08-20T02:22:47.819Z,1013.67
2018-08-20T02:23:47.823Z,1013.65
2018-08-20T02:24:47.826Z,1013.66
2018-08-20T02:25:47.829Z,1013.59
2018-08-20T02:26:48.037Z,1013.61
2018-08-20T02:27:47.839Z,1013.61
2018-08-20T02:28:47.841Z,1013.58
2018-08-20T02:29:48.047Z,1013.61
2018-08-20T02:30:47.849Z,1013.61
2018-08-20T02:31:47.857Z,1013.60
2018-08-20T02:32:48.059Z,1013.58
2018-08-20T02:33:47.859Z,1013.56
2018-08-20T02:34:47.876Z,1013.59
2018-08-20T02:35:47.865Z,1013.57
2018-08-20T02:36:47.870Z,1013.57
2018-08-20T02:37:47.873Z,1013.56
2018-08-20T02:38:47.890Z,1013.58
2018-08-20T02:39:47.891Z,1013.55
2018-08-20T02:40:48.088Z,1013.56
2018-08-20T02:41:47.889Z,1013.57
2018-08-20T02:42:47.894Z,1013.59
2018-08-20T02:43:47.895Z,1013.58
2018-08-20T02:44:47.899Z,1013.59
2018-08-20T02:45:47.925Z,1013.60
2018-08-20T02:46:47.916Z,1013.61
2018-08-20T02:47:47.914Z,1013.57
2018-08-20T02:48:48.147Z,1013.62
2018-08-20T02:49:47.914Z,1013.61
2018-08-20T02:50:47.918Z,1013.62
2018-08-20T02:51:48.136Z,1013.65
2018-08-20T02:52:48.128Z,1013.63
2018-08-20T02:53:47.940Z,1013.63
2018-08-20T02:54:47.933Z,1013.63
2018-08-20T02:55:48.151Z,1013.62
2018-08-20T02:56:47.960Z,1013.65
2018-08-20T02:57:47.948Z,1013.64
2018-08-20T02:58:47.958Z,1013.63
2018-08-20T02:59:47.962Z,1013.62
2018-08-20T03:00:47.969Z,1013.60
2018-08-20T03:01:47.957Z,1013.61
2018-08-20T03:02:47.964Z,1013.60
2018-08-20T03:03:48.258Z,1013.62
2018-08-20T03:04:48.171Z,1013.55
2018-08-20T03:05:47.970Z,1013.57
2018-08-20T03:06:47.978Z,1013.57
2018-08-20T03:07:47.986Z,1013.56
2018-08-20T03:08:48.006Z,1013.55
2018-08-20T03:09:47.997Z,1013.56
2018-08-20T03:10:47.988Z,1013.56
2018-08-20T03:11:47.990Z,1013.55
2018-08-20T03:12:48.022Z,1013.54
2018-08-20T03:13:48.007Z,1013.59
2018-08-20T03:14:48.001Z,1013.57
2018-08-20T03:15:48.014Z,1013.61
2018-08-20T03:16:48.019Z,1013.58
2018-08-20T03:17:48.021Z,1013.59
2018-08-20T03:18:48.220Z,1013.59
2018-08-20T03:19:48.017Z,1013.62
2018-08-20T03:20:48.019Z,1013.59
2018-08-20T03:21:48.023Z,1013.58
2018-08-20T03:22:48.244Z,1013.62
2018-08-20T03:23:48.031Z,1013.65
2018-08-20T03:24:48.033Z,1013.65
2018-08-20T03:25:48.049Z,1013.66
2018-08-20T03:26:48.069Z,1013.65
2018-08-20T03:27:48.057Z,1013.68
2018-08-20T03:28:48.049Z,1013.69
2018-08-20T03:29:48.062Z,1013.67
2018-08-20T03:30:48.065Z,1013.73
2018-08-20T03:31:48.058Z,1013.75
2018-08-20T03:32:48.060Z,1013.71
2018-08-20T03:33:48.067Z,1013.72
2018-08-20T03:34:48.284Z,1013.73
2018-08-20T03:35:48.092Z,1013.69
2018-08-20T03:36:48.283Z,1013.71
2018-08-20T03:37:48.078Z,1013.69
2018-08-20T03:38:48.084Z,1013.68
2018-08-20T03:39:48.084Z,1013.67
2018-08-20T03:40:48.298Z,1013.69
2018-08-20T03:41:48.091Z,1013.70
2018-08-20T03:42:48.095Z,1013.74
2018-08-20T03:43:48.100Z,1013.72
2018-08-20T03:44:48.103Z,1013.73
2018-08-20T03:45:48.110Z,1013.72
2018-08-20T03:46:48.106Z,1013.74
2018-08-20T03:47:48.130Z,1013.72
2018-08-20T03:48:48.325Z,1013.70
2018-08-20T03:49:48.121Z,1013.70
2018-08-20T03:50:48.322Z,1013.70
2018-08-20T03:51:48.142Z,1013.75
2018-08-20T03:52:48.134Z,1013.74
2018-08-20T03:53:48.335Z,1013.71
2018-08-20T03:54:48.134Z,1013.73
2018-08-20T03:55:48.149Z,1013.74
2018-08-20T03:56:48.139Z,1013.75
2018-08-20T03:57:48.344Z,1013.73
2018-08-20T03:58:48.144Z,1013.74
2018-08-20T03:59:48.159Z,1013.71
2018-08-20T04:00:48.150Z,1013.74
2018-08-20T04:01:48.154Z,1013.78
2018-08-20T04:02:48.166Z,1013.81
2018-08-20T04:03:48.163Z,1013.87
2018-08-20T04:04:48.199Z,1013.90
2018-08-20T04:05:48.167Z,1013.90
2018-08-20T04:06:48.182Z,1013.92
2018-08-20T04:07:48.173Z,1013.96
2018-08-20T04:08:48.408Z,1013.98
2018-08-20T04:09:48.195Z,1013.93
2018-08-20T04:10:48.208Z,1013.97
2018-08-20T04:11:48.207Z,1013.94
2018-08-20T04:12:48.188Z,1013.95
2018-08-20T04:13:48.198Z,1013.94
2018-08-20T04:14:48.213Z,1013.94
2018-08-20T04:15:48.202Z,1013.96
2018-08-20T04:16:48.208Z,1013.96
2018-08-20T04:17:48.421Z,1013.93
2018-08-20T04:18:48.217Z,1013.95
2018-08-20T04:19:48.228Z,1013.94
2018-08-20T04:20:48.228Z,1013.95
2018-08-20T04:21:48.222Z,1013.93
2018-08-20T04:22:48.223Z,1013.87
2018-08-20T04:23:48.241Z,1013.91
2018-08-20T04:24:48.462Z,1013.91
2018-08-20T04:25:48.262Z,1013.88
2018-08-20T04:26:48.267Z,1013.88
2018-08-20T04:27:48.241Z,1013.90
2018-08-20T04:28:48.475Z,1013.90
2018-08-20T04:29:48.258Z,1013.90
2018-08-20T04:30:48.266Z,1013.87
2018-08-20T04:31:48.254Z,1013.88
2018-08-20T04:32:48.259Z,1013.85
2018-08-20T04:33:48.261Z,1013.82
2018-08-20T04:34:48.268Z,1013.83
2018-08-20T04:35:48.285Z,1013.83
2018-08-20T04:36:48.294Z,1013.86
2018-08-20T04:37:48.289Z,1013.86
2018-08-20T04:38:48.296Z,1013.86
2018-08-20T04:39:48.284Z,1013.87
2018-08-20T04:40:48.303Z,1013.87
2018-08-20T04:41:48.494Z,1013.87
2018-08-20T04:42:48.304Z,1013.85
2018-08-20T04:43:48.297Z,1013.86
2018-08-20T04:44:48.297Z,1013.89
2018-08-20T04:45:48.326Z,1013.87
2018-08-20T04:46:48.306Z,1013.81
2018-08-20T04:47:48.526Z,1013.81
2018-08-20T04:48:48.330Z,1013.81
2018-08-20T04:49:48.383Z,1013.85
2018-08-20T04:50:48.424Z,1013.88
2018-08-20T04:51:48.324Z,1013.89
2018-08-20T04:52:48.327Z,1013.93
2018-08-20T04:53:48.329Z,1013.91
2018-08-20T04:54:48.336Z,1013.91
2018-08-20T04:55:48.337Z,1013.93
2018-08-20T04:56:48.360Z,1013.93
2018-08-20T04:57:48.559Z,1013.97
2018-08-20T04:58:48.553Z,1013.96
2018-08-20T04:59:48.350Z,1013.93
2018-08-20T05:00:48.351Z,1013.93
2018-08-20T05:01:48.364Z,1013.95
2018-08-20T05:02:48.363Z,1013.94
2018-08-20T05:03:48.379Z,1013.96
2018-08-20T05:04:48.377Z,1013.92
2018-08-20T05:05:48.381Z,1013.96
2018-08-20T05:06:48.388Z,1013.96
2018-08-20T05:07:48.403Z,1013.98
2018-08-20T05:08:48.394Z,1014.02
2018-08-20T05:09:48.392Z,1014.02
2018-08-20T05:10:48.424Z,1013.99
2018-08-20T05:11:48.409Z,1013.99
2018-08-20T05:12:48.410Z,1013.95
2018-08-20T05:13:48.399Z,1013.95
2018-08-20T05:14:48.620Z,1013.94
2018-08-20T05:15:48.404Z,1013.94
2018-08-20T05:16:48.436Z,1013.90
2018-08-20T05:17:48.411Z,1013.92
2018-08-20T05:18:48.491Z,1013.94
2018-08-20T05:19:48.630Z,1013.92
2018-08-20T05:20:48.451Z,1013.95
2018-08-20T05:21:48.434Z,1013.94
2018-08-20T05:22:48.431Z,1013.94
2018-08-20T05:23:48.430Z,1013.94
2018-08-20T05:24:48.455Z,1013.96
2018-08-20T05:25:48.446Z,1013.94
2018-08-20T05:26:48.452Z,1013.95
2018-08-20T05:27:48.445Z,1013.98
2018-08-20T05:28:48.449Z,1013.99
2018-08-20T05:29:48.451Z,1013.99
2018-08-20T05:30:48.654Z,1014.00
2018-08-20T05:31:48.659Z,1014.02
2018-08-20T05:32:48.462Z,1014.02
2018-08-20T05:33:48.464Z,1014.05
2018-08-20T05:34:48.467Z,1014.04
2018-08-20T05:35:48.683Z,1014.03
2018-08-20T05:36:48.473Z,1014.04
2018-08-20T05:37:48.478Z,1014.03
2018-08-20T05:38:48.492Z,1014.03
2018-08-20T05:39:48.685Z,1014.07
2018-08-20T05:40:48.490Z,1014.04
2018-08-20T05:41:48.495Z,1014.03
2018-08-20T05:42:48.496Z,1014.05
2018-08-20T05:43:48.499Z,1014.04
2018-08-20T05:44:48.786Z,1014.06
2018-08-20T05:45:48.506Z,1014.08
2018-08-20T05:46:48.508Z,1014.09
2018-08-20T05:47:48.526Z,1014.08
2018-08-20T05:48:48.515Z,1014.09
2018-08-20T05:49:48.529Z,1014.10
2018-08-20T05:50:48.522Z,1014.13
2018-08-20T05:51:48.728Z,1014.17
2018-08-20T05:52:48.743Z,1014.12
2018-08-20T05:53:48.552Z,1014.14
2018-08-20T05:54:48.758Z,1014.14
2018-08-20T05:55:48.541Z,1014.18
2018-08-20T05:56:48.749Z,1014.15
2018-08-20T05:57:48.571Z,1014.18
2018-08-20T05:58:48.549Z,1014.22
2018-08-20T05:59:48.564Z,1014.24
2018-08-20T06:00:48.569Z,1014.22
2018-08-20T06:01:48.582Z,1014.20
2018-08-20T06:02:48.574Z,1014.23
2018-08-20T06:03:48.579Z,1014.21
2018-08-20T06:04:48.581Z,1014.23
2018-08-20T06:05:48.793Z,1014.23
2018-08-20T06:06:48.602Z,1014.21
2018-08-20T06:07:48.584Z,1014.24
2018-08-20T06:08:48.586Z,1014.23
2018-08-20T06:09:48.591Z,1014.26
2018-08-20T06:10:48.602Z,1014.24
2018-08-20T06:11:48.605Z,1014.26
2018-08-20T06:12:48.622Z,1014.24
2018-08-20T06:13:48.612Z,1014.26
2018-08-20T06:14:48.608Z,1014.22
2018-08-20T06:15:48.642Z,1014.23
2018-08-20T06:16:48.613Z,1014.21
2018-08-20T06:17:48.816Z,1014.27
2018-08-20T06:18:48.619Z,1014.28
2018-08-20T06:19:48.624Z,1014.25
2018-08-20T06:20:48.629Z,1014.29
2018-08-20T06:21:48.627Z,1014.29
2018-08-20T06:22:48.631Z,1014.26
2018-08-20T06:23:48.646Z,1014.30
2018-08-20T06:24:48.840Z,1014.27
2018-08-20T06:25:48.657Z,1014.32
2018-08-20T06:26:48.646Z,1014.32
2018-08-20T06:27:48.867Z,1014.35
2018-08-20T06:28:48.653Z,1014.35
2018-08-20T06:29:48.654Z,1014.38
2018-08-20T06:30:48.660Z,1014.37
2018-08-20T06:31:48.672Z,1014.37
2018-08-20T06:32:48.667Z,1014.40
2018-08-20T06:33:48.682Z,1014.38
2018-08-20T06:34:48.672Z,1014.41
2018-08-20T06:35:48.834Z,1014.41
2018-08-20T06:36:48.680Z,1014.43
2018-08-20T06:37:48.895Z,1014.44
2018-08-20T06:38:48.688Z,1014.43
2018-08-20T06:39:48.699Z,1014.40
2018-08-20T06:40:48.706Z,1014.41
2018-08-20T06:41:48.711Z,1014.42
2018-08-20T06:42:48.903Z,1014.42
2018-08-20T06:43:48.704Z,1014.45
2018-08-20T06:44:48.708Z,1014.46
2018-08-20T06:45:48.715Z,1014.44
2018-08-20T06:46:48.719Z,1014.48
2018-08-20T06:47:48.729Z,1014.47
2018-08-20T06:48:48.790Z,1014.43
2018-08-20T06:49:48.725Z,1014.49
2018-08-20T06:50:48.730Z,1014.47
2018-08-20T06:51:48.736Z,1014.47
2018-08-20T06:52:48.735Z,1014.45
2018-08-20T06:53:48.744Z,1014.47
2018-08-20T06:54:48.746Z,1014.46
2018-08-20T06:55:48.758Z,1014.50
2018-08-20T06:56:48.755Z,1014.51
2018-08-20T06:57:48.757Z,1014.51
2018-08-20T06:58:48.971Z,1014.51
2018-08-20T06:59:48.761Z,1014.55
2018-08-20T07:00:48.784Z,1014.55
2018-08-20T07:01:48.973Z,1014.56
2018-08-20T07:02:48.793Z,1014.58
2018-08-20T07:03:48.977Z,1014.60
2018-08-20T07:04:48.776Z,1014.62
2018-08-20T07:05:48.813Z,1014.57
2018-08-20T07:06:48.797Z,1014.59
2018-08-20T07:07:49.009Z,1014.59
2018-08-20T07:08:48.802Z,1014.62
2018-08-20T07:09:48.813Z,1014.62
2018-08-20T07:10:48.798Z,1014.67
2018-08-20T07:11:48.808Z,1014.63
2018-08-20T07:12:48.820Z,1014.66
2018-08-20T07:13:48.821Z,1014.68
2018-08-20T07:14:48.811Z,1014.73
2018-08-20T07:15:49.042Z,1014.71
2018-08-20T07:16:48.828Z,1014.76
2018-08-20T07:17:48.824Z,1014.78
2018-08-20T07:18:48.828Z,1014.76
2018-08-20T07:19:48.842Z,1014.75
2018-08-20T07:20:48.849Z,1014.75
2018-08-20T07:21:49.041Z,1014.75
2018-08-20T07:22:48.903Z,1014.77
2018-08-20T07:23:49.190Z,1014.76
2018-08-20T07:24:49.052Z,1014.76
2018-08-20T07:25:48.860Z,1014.77
2018-08-20T07:26:48.883Z,1014.77
2018-08-20T07:27:48.862Z,1014.77
2018-08-20T07:28:48.874Z,1014.79
2018-08-20T07:29:49.069Z,1014.79
2018-08-20T07:30:48.914Z,1014.76
2018-08-20T07:31:49.120Z,1014.77
2018-08-20T07:32:48.935Z,1014.77
2018-08-20T07:33:48.883Z,1014.83
2018-08-20T07:34:48.903Z,1014.77
2018-08-20T07:35:48.892Z,1014.79
2018-08-20T07:36:48.893Z,1014.77
2018-08-20T07:37:48.897Z,1014.79
2018-08-20T07:38:48.915Z,1014.80
2018-08-20T07:39:49.114Z,1014.81
2018-08-20T07:40:48.912Z,1014.84
2018-08-20T07:41:48.916Z,1014.86
2018-08-20T07:42:48.917Z,1014.86
2018-08-20T07:43:48.922Z,1014.83
2018-08-20T07:44:49.127Z,1014.91
2018-08-20T07:45:49.140Z,1014.86
2018-08-20T07:46:48.930Z,1014.92
2018-08-20T07:47:48.936Z,1014.90
2018-08-20T07:48:48.938Z,1014.90
2018-08-20T07:49:48.941Z,1014.91
2018-08-20T07:50:48.950Z,1014.95
2018-08-20T07:51:49.161Z,1014.97
2018-08-20T07:52:49.156Z,1014.98
2018-08-20T07:53:49.160Z,1014.97
2018-08-20T07:54:48.962Z,1015.01
2018-08-20T07:55:48.977Z,1015.00
2018-08-20T07:56:49.185Z,1015.02
2018-08-20T07:57:48.974Z,1015.05
2018-08-20T07:58:48.979Z,1015.04
2018-08-20T07:59:48.985Z,1015.05
2018-08-20T08:00:48.996Z,1015.03
2018-08-20T08:01:48.988Z,1014.99
2018-08-20T08:02:48.992Z,1015.03
2018-08-20T08:03:48.996Z,1015.04
2018-08-20T08:04:49.002Z,1015.02
2018-08-20T08:05:49.003Z,1015.05
2018-08-20T08:06:49.209Z,1015.05
2018-08-20T08:07:49.215Z,1015.05
2018-08-20T08:08:49.055Z,1015.06
2018-08-20T08:09:49.220Z,1015.10
2018-08-20T08:10:49.022Z,1015.06
2018-08-20T08:11:49.028Z,1015.08
2018-08-20T08:12:49.231Z,1015.07
2018-08-20T08:13:49.033Z,1015.09
2018-08-20T08:14:49.034Z,1015.12
2018-08-20T08:15:49.052Z,1015.07
2018-08-20T08:16:49.043Z,1015.09
2018-08-20T08:17:49.249Z,1015.08
2018-08-20T08:18:49.054Z,1015.11
2018-08-20T08:19:49.157Z,1015.07
2018-08-20T08:20:49.075Z,1015.11
2018-08-20T08:21:49.071Z,1015.12
2018-08-20T08:22:49.066Z,1015.13
2018-08-20T08:23:49.070Z,1015.17
2018-08-20T08:24:49.085Z,1015.16
2018-08-20T08:25:49.089Z,1015.18
2018-08-20T08:26:49.280Z,1015.18
2018-08-20T08:27:49.286Z,1015.19
2018-08-20T08:28:49.286Z,1015.21
2018-08-20T08:29:49.102Z,1015.21
2018-08-20T08:30:49.092Z,1015.22
2018-08-20T08:31:49.111Z,1015.18
2018-08-20T08:32:49.098Z,1015.22
2018-08-20T08:33:49.102Z,1015.20
2018-08-20T08:34:49.104Z,1015.22
2018-08-20T08:35:49.109Z,1015.24
2018-08-20T08:36:49.122Z,1015.24
2018-08-20T08:37:49.115Z,1015.24
2018-08-20T08:38:49.335Z,1015.23
2018-08-20T08:39:49.128Z,1015.24
2018-08-20T08:40:49.126Z,1015.23
2018-08-20T08:41:49.345Z,1015.23
2018-08-20T08:42:49.345Z,1015.23
2018-08-20T08:43:49.350Z,1015.26
2018-08-20T08:44:49.151Z,1015.26
2018-08-20T08:45:49.365Z,1015.25
2018-08-20T08:46:49.407Z,1015.27
2018-08-20T08:47:49.352Z,1015.26
2018-08-20T08:48:49.162Z,1015.29
2018-08-20T08:49:49.381Z,1015.29
2018-08-20T08:50:49.171Z,1015.26
2018-08-20T08:51:49.191Z,1015.26
2018-08-20T08:52:49.184Z,1015.31
2018-08-20T08:53:49.183Z,1015.29
2018-08-20T08:54:49.181Z,1015.33
2018-08-20T08:55:49.180Z,1015.35
2018-08-20T08:56:49.194Z,1015.30
2018-08-20T08:57:49.201Z,1015.31
2018-08-20T08:58:49.191Z,1015.35
2018-08-20T08:59:49.199Z,1015.36
2018-08-20T09:00:49.219Z,1015.34
2018-08-20T09:01:49.201Z,1015.35
2018-08-20T09:02:49.204Z,1015.34
2018-08-20T09:03:49.410Z,1015.34
2018-08-20T09:04:49.223Z,1015.37
2018-08-20T09:05:49.215Z,1015.36
2018-08-20T09:06:49.435Z,1015.39
2018-08-20T09:07:49.234Z,1015.42
2018-08-20T09:08:49.429Z,1015.39
2018-08-20T09:09:49.242Z,1015.37
2018-08-20T09:10:49.438Z,1015.39
2018-08-20T09:11:49.249Z,1015.37
2018-08-20T09:12:49.261Z,1015.39
2018-08-20T09:13:49.370Z,1015.38
2018-08-20T09:14:49.462Z,1015.39
2018-08-20T09:15:49.457Z,1015.35
2018-08-20T09:16:49.258Z,1015.40
2018-08-20T09:17:49.284Z,1015.40
2018-08-20T09:18:49.267Z,1015.44
2018-08-20T09:19:49.267Z,1015.42
2018-08-20T09:20:49.274Z,1015.39
2018-08-20T09:21:49.301Z,1015.37
2018-08-20T09:22:49.280Z,1015.41
2018-08-20T09:23:49.286Z,1015.40
2018-08-20T09:24:49.297Z,1015.38
2018-08-20T09:25:49.289Z,1015.42
2018-08-20T09:26:49.497Z,1015.41
2018-08-20T09:27:49.296Z,1015.39
2018-08-20T09:28:49.312Z,1015.45
2018-08-20T09:29:49.508Z,1015.45
2018-08-20T09:30:49.325Z,1015.42
2018-08-20T09:31:49.323Z,1015.45
2018-08-20T09:32:49.314Z,1015.41
2018-08-20T09:33:49.536Z,1015.46
2018-08-20T09:34:49.339Z,1015.46
2018-08-20T09:35:49.327Z,1015.46
2018-08-20T09:36:49.341Z,1015.44
2018-08-20T09:37:49.369Z,1015.47
2018-08-20T09:38:49.362Z,1015.48
2018-08-20T09:39:49.342Z,1015.49
2018-08-20T09:40:49.556Z,1015.47
2018-08-20T09:41:49.348Z,1015.50
2018-08-20T09:42:49.351Z,1015.51
2018-08-20T09:43:49.480Z,1015.48
2018-08-20T09:44:49.561Z,1015.50
2018-08-20T09:45:49.360Z,1015.51
2018-08-20T09:46:49.366Z,1015.49
2018-08-20T09:47:49.374Z,1015.48
2018-08-20T09:48:49.374Z,1015.53
2018-08-20T09:49:49.589Z,1015.51
2018-08-20T09:50:49.582Z,1015.55
2018-08-20T09:51:49.383Z,1015.53
2018-08-20T09:52:49.386Z,1015.55
2018-08-20T09:53:49.596Z,1015.53
2018-08-20T09:54:49.398Z,1015.54
2018-08-20T09:55:49.601Z,1015.56
2018-08-20T09:56:49.603Z,1015.53
2018-08-20T09:57:49.608Z,1015.53
2018-08-20T09:58:49.412Z,1015.54
2018-08-20T09:59:49.631Z,1015.56
2018-08-20T10:00:49.414Z,1015.55
2018-08-20T10:01:49.423Z,1015.53
2018-08-20T10:02:49.434Z,1015.53
2018-08-20T10:03:49.426Z,1015.50
2018-08-20T10:04:49.429Z,1015.50
2018-08-20T10:05:49.448Z,1015.48
2018-08-20T10:06:49.441Z,1015.53
2018-08-20T10:07:49.440Z,1015.48
2018-08-20T10:08:49.446Z,1015.50
2018-08-20T10:09:49.665Z,1015.49
2018-08-20T10:10:49.463Z,1015.51
2018-08-20T10:11:49.457Z,1015.49
2018-08-20T10:12:49.661Z,1015.49
2018-08-20T10:13:49.462Z,1015.49
2018-08-20T10:14:49.468Z,1015.50
2018-08-20T10:15:49.471Z,1015.49
2018-08-20T10:16:49.471Z,1015.46
2018-08-20T10:17:49.477Z,1015.46
2018-08-20T10:18:49.486Z,1015.43
2018-08-20T10:19:49.484Z,1015.45
2018-08-20T10:20:49.489Z,1015.46
2018-08-20T10:21:49.694Z,1015.48
2018-08-20T10:22:49.504Z,1015.51
2018-08-20T10:23:49.703Z,1015.49
2018-08-20T10:24:49.502Z,1015.49
2018-08-20T10:25:49.518Z,1015.49
2018-08-20T10:26:49.508Z,1015.50
2018-08-20T10:27:49.718Z,1015.47
2018-08-20T10:28:49.719Z,1015.51
2018-08-20T10:29:49.518Z,1015.52
2018-08-20T10:30:49.524Z,1015.56
2018-08-20T10:31:49.542Z,1015.56
2018-08-20T10:32:49.740Z,1015.57
2018-08-20T10:33:49.543Z,1015.55
2018-08-20T10:34:49.537Z,1015.56
2018-08-20T10:35:49.563Z,1015.57
2018-08-20T10:36:49.754Z,1015.57
2018-08-20T10:37:49.614Z,1015.61
2018-08-20T10:38:49.753Z,1015.57
2018-08-20T10:39:49.575Z,1015.61
2018-08-20T10:40:49.770Z,1015.60
2018-08-20T10:41:49.765Z,1015.60
2018-08-20T10:42:49.583Z,1015.62
2018-08-20T10:43:49.702Z,1015.60
2018-08-20T10:44:49.774Z,1015.59
2018-08-20T10:45:49.575Z,1015.56
2018-08-20T10:46:49.578Z,1015.57
2018-08-20T10:47:49.594Z,1015.57
2018-08-20T10:48:49.600Z,1015.57
2018-08-20T10:49:49.793Z,1015.58
2018-08-20T10:50:49.799Z,1015.54
2018-08-20T10:51:49.598Z,1015.55
2018-08-20T10:52:49.611Z,1015.55
2018-08-20T10:53:49.605Z,1015.54
2018-08-20T10:54:49.810Z,1015.56
2018-08-20T10:55:49.640Z,1015.54
2018-08-20T10:56:49.627Z,1015.56
2018-08-20T10:57:49.620Z,1015.56
2018-08-20T10:58:49.825Z,1015.53
2018-08-20T10:59:49.626Z,1015.56
2018-08-20T11:00:49.629Z,1015.54
2018-08-20T11:01:49.643Z,1015.60
2018-08-20T11:02:49.638Z,1015.60
2018-08-20T11:03:49.659Z,1015.62
2018-08-20T11:04:49.647Z,1015.57
2018-08-20T11:05:49.647Z,1015.61
2018-08-20T11:06:49.650Z,1015.59
2018-08-20T11:07:49.671Z,1015.60
2018-08-20T11:08:49.658Z,1015.62
2018-08-20T11:09:49.679Z,1015.64
2018-08-20T11:10:49.927Z,1015.61
2018-08-20T11:11:49.671Z,1015.63
2018-08-20T11:12:49.673Z,1015.60
2018-08-20T11:13:49.890Z,1015.58
2018-08-20T11:14:49.682Z,1015.59
2018-08-20T11:15:49.684Z,1015.62
2018-08-20T11:16:49.690Z,1015.58
2018-08-20T11:17:49.722Z,1015.60
2018-08-20T11:18:49.739Z,1015.62
2018-08-20T11:19:49.720Z,1015.64
2018-08-20T11:20:49.715Z,1015.61
2018-08-20T11:21:49.711Z,1015.63
2018-08-20T11:22:49.916Z,1015.59
2018-08-20T11:23:49.936Z,1015.61
2018-08-20T11:24:49.719Z,1015.60
2018-08-20T11:25:49.732Z,1015.60
2018-08-20T11:26:49.752Z,1015.57
2018-08-20T11:27:49.743Z,1015.58
2018-08-20T11:28:49.735Z,1015.57
2018-08-20T11:29:49.740Z,1015.57
2018-08-20T11:30:49.958Z,1015.56
2018-08-20T11:31:49.762Z,1015.58
2018-08-20T11:32:49.768Z,1015.59
2018-08-20T11:33:49.770Z,1015.58
2018-08-20T11:34:49.978Z,1015.54
2018-08-20T11:35:49.766Z,1015.52
2018-08-20T11:36:49.781Z,1015.56
2018-08-20T11:37:49.992Z,1015.55
2018-08-20T11:38:49.800Z,1015.57
2018-08-20T11:39:49.787Z,1015.55
2018-08-20T11:40:49.987Z,1015.58
2018-08-20T11:41:49.798Z,1015.56
2018-08-20T11:42:49.811Z,1015.54
2018-08-20T11:43:49.808Z,1015.53
2018-08-20T11:44:49.803Z,1015.51
2018-08-20T11:45:49.807Z,1015.53
2018-08-20T11:46:50.024Z,1015.50
2018-08-20T11:47:50.027Z,1015.49
2018-08-20T11:48:49.846Z,1015.48
2018-08-20T11:49:49.823Z,1015.45
2018-08-20T11:50:49.840Z,1015.46
2018-08-20T11:51:49.843Z,1015.46
2018-08-20T11:52:50.044Z,1015.46
2018-08-20T11:53:49.870Z,1015.46
2018-08-20T11:54:49.858Z,1015.45
2018-08-20T11:55:50.055Z,1015.41
2018-08-20T11:56:50.055Z,1015.40
2018-08-20T11:57:49.861Z,1015.40
2018-08-20T11:58:49.865Z,1015.38
2018-08-20T11:59:49.870Z,1015.36
2018-08-20T12:00:49.883Z,1015.35
2018-08-20T12:01:49.929Z,1015.33
2018-08-20T12:02:49.884Z,1015.33
2018-08-20T12:03:50.117Z,1015.35
2018-08-20T12:04:49.891Z,1015.32
2018-08-20T12:05:50.099Z,1015.32